sensor_id;sensor_type;location;lat;lon;timestamp;pressure;altitude;pressure_sealevel;temperature;humidity
70200;BME280;57587;55.688;37.600;2023-11-19T00:00:10;100374.06;;;-2.84;53.15
70200;BME280;57587;55.688;37.600;2023-11-19T00:02:42;100378.69;;;-2.89;53.34
70200;BME280;57587;55.688;37.600;2023-11-19T00:05:10;100375.31;;;-2.91;53.70
70200;BME280;57587;55.688;37.600;2023-11-19T00:07:41;100373.84;;;-2.96;53.93
70200;BME280;57587;55.688;37.600;2023-11-19T00:10:09;100365.16;;;-2.97;53.23
70200;BME280;57587;55.688;37.600;2023-11-19T00:12:39;100369.63;;;-2.99;53.63
70200;BME280;57587;55.688;37.600;2023-11-19T00:15:07;100361.06;;;-3.03;54.12
70200;BME280;57587;55.688;37.600;2023-11-19T00:17:40;100357.75;;;-3.06;53.39
70200;BME280;57587;55.688;37.600;2023-11-19T00:20:13;100363.16;;;-3.09;53.93
70200;BME280;57587;55.688;37.600;2023-11-19T00:22:44;100364.31;;;-3.15;54.12
70200;BME280;57587;55.688;37.600;2023-11-19T00:25:15;100355.13;;;-3.23;54.31
70200;BME280;57587;55.688;37.600;2023-11-19T00:27:44;100362.38;;;-3.29;54.74
70200;BME280;57587;55.688;37.600;2023-11-19T00:30:12;100372.53;;;-3.22;54.63
70200;BME280;57587;55.688;37.600;2023-11-19T00:32:41;100358.53;;;-3.21;54.67
70200;BME280;57587;55.688;37.600;2023-11-19T00:35:09;100355.53;;;-3.31;54.26
70200;BME280;57587;55.688;37.600;2023-11-19T00:37:42;100350.38;;;-3.33;55.06
70200;BME280;57587;55.688;37.600;2023-11-19T00:40:10;100348.84;;;-3.37;55.02
70200;BME280;57587;55.688;37.600;2023-11-19T00:42:38;100348.16;;;-3.40;54.71
70200;BME280;57587;55.688;37.600;2023-11-19T00:45:05;100346.59;;;-3.44;54.77
70200;BME280;57587;55.688;37.600;2023-11-19T00:47:38;100351.13;;;-3.48;55.03
70200;BME280;57587;55.688;37.600;2023-11-19T00:50:06;100349.97;;;-3.42;54.63
70200;BME280;57587;55.688;37.600;2023-11-19T00:52:37;100343.91;;;-3.43;55.17
70200;BME280;57587;55.688;37.600;2023-11-19T00:55:05;100342.19;;;-3.44;54.94
70200;BME280;57587;55.688;37.600;2023-11-19T00:57:34;100335.59;;;-3.51;54.90
70200;BME280;57587;55.688;37.600;2023-11-19T01:00:04;100334.19;;;-3.58;55.36
70200;BME280;57587;55.688;37.600;2023-11-19T01:02:42;100330.66;;;-3.57;55.28
70200;BME280;57587;55.688;37.600;2023-11-19T01:05:09;100339.88;;;-3.67;55.60
70200;BME280;57587;55.688;37.600;2023-11-19T01:07:36;100327.88;;;-3.72;55.37
70200;BME280;57587;55.688;37.600;2023-11-19T01:10:04;100329.56;;;-3.71;55.58
70200;BME280;57587;55.688;37.600;2023-11-19T01:12:31;100326.31;;;-3.76;55.77
70200;BME280;57587;55.688;37.600;2023-11-19T01:14:59;100322.38;;;-3.84;56.21
70200;BME280;57587;55.688;37.600;2023-11-19T01:17:31;100316.09;;;-3.80;56.25
70200;BME280;57587;55.688;37.600;2023-11-19T01:19:58;100313.78;;;-3.86;55.91
70200;BME280;57587;55.688;37.600;2023-11-19T01:22:26;100303.53;;;-3.91;56.54
70200;BME280;57587;55.688;37.600;2023-11-19T01:24:53;100295.47;;;-3.86;56.93
70200;BME280;57587;55.688;37.600;2023-11-19T01:27:21;100298.94;;;-3.86;56.55
70200;BME280;57587;55.688;37.600;2023-11-19T01:29:48;100303.16;;;-3.83;56.42
70200;BME280;57587;55.688;37.600;2023-11-19T01:32:16;100308.47;;;-3.85;56.21
70200;BME280;57587;55.688;37.600;2023-11-19T01:34:43;100302.78;;;-3.93;56.71
70200;BME280;57587;55.688;37.600;2023-11-19T01:37:10;100302.00;;;-3.95;57.31
70200;BME280;57587;55.688;37.600;2023-11-19T01:39:44;100302.00;;;-3.95;57.34
70200;BME280;57587;55.688;37.600;2023-11-19T01:42:25;100308.91;;;-3.94;57.43
70200;BME280;57587;55.688;37.600;2023-11-19T01:44:59;100309.84;;;-3.95;57.70
70200;BME280;57587;55.688;37.600;2023-11-19T01:47:28;100298.69;;;-3.99;57.76
70200;BME280;57587;55.688;37.600;2023-11-19T01:49:56;100291.81;;;-4.01;57.63
70200;BME280;57587;55.688;37.600;2023-11-19T01:52:25;100288.22;;;-3.99;57.49
70200;BME280;57587;55.688;37.600;2023-11-19T01:54:53;100298.75;;;-4.00;57.13
70200;BME280;57587;55.688;37.600;2023-11-19T01:57:22;100289.06;;;-3.98;57.60
70200;BME280;57587;55.688;37.600;2023-11-19T01:59:53;100287.53;;;-4.02;57.46
70200;BME280;57587;55.688;37.600;2023-11-19T02:02:20;100296.06;;;-3.99;57.24
70200;BME280;57587;55.688;37.600;2023-11-19T02:04:49;100299.38;;;-3.95;57.66
70200;BME280;57587;55.688;37.600;2023-11-19T02:07:18;100296.13;;;-4.00;56.96
70200;BME280;57587;55.688;37.600;2023-11-19T02:09:46;100291.69;;;-3.98;56.85
70200;BME280;57587;55.688;37.600;2023-11-19T02:12:13;100299.38;;;-3.95;56.82
70200;BME280;57587;55.688;37.600;2023-11-19T02:14:40;100297.53;;;-3.93;57.04
70200;BME280;57587;55.688;37.600;2023-11-19T02:17:25;100296.13;;;-4.00;57.56
70200;BME280;57587;55.688;37.600;2023-11-19T02:19:53;100299.97;;;-4.07;57.18
70200;BME280;57587;55.688;37.600;2023-11-19T02:22:20;100289.50;;;-4.07;57.11
70200;BME280;57587;55.688;37.600;2023-11-19T02:24:50;100289.00;;;-4.15;57.95
70200;BME280;57587;55.688;37.600;2023-11-19T02:27:30;100287.97;;;-4.11;58.09
70200;BME280;57587;55.688;37.600;2023-11-19T02:29:58;100284.28;;;-4.07;57.59
70200;BME280;57587;55.688;37.600;2023-11-19T02:32:27;100292.13;;;-4.07;58.28
70200;BME280;57587;55.688;37.600;2023-11-19T02:34:57;100287.81;;;-4.08;58.45
70200;BME280;57587;55.688;37.600;2023-11-19T02:37:34;100292.03;;;-4.06;58.37
70200;BME280;57587;55.688;37.600;2023-11-19T02:40:01;100288.81;;;-4.11;57.82
70200;BME280;57587;55.688;37.600;2023-11-19T02:42:30;100288.88;;;-4.12;58.55
70200;BME280;57587;55.688;37.600;2023-11-19T02:44:58;100292.03;;;-4.06;57.53
70200;BME280;57587;55.688;37.600;2023-11-19T02:47:25;100282.50;;;-4.07;58.09
70200;BME280;57587;55.688;37.600;2023-11-19T02:49:52;100283.78;;;-4.15;58.38
70200;BME280;57587;55.688;37.600;2023-11-19T02:52:20;100281.13;;;-4.14;57.90
70200;BME280;57587;55.688;37.600;2023-11-19T02:54:47;100280.88;;;-4.09;58.28
70200;BME280;57587;55.688;37.600;2023-11-19T02:57:14;100287.97;;;-4.11;58.06
70200;BME280;57587;55.688;37.600;2023-11-19T02:59:44;100285.41;;;-4.13;58.74
70200;BME280;57587;55.688;37.600;2023-11-19T03:02:11;100283.88;;;-4.17;58.62
70200;BME280;57587;55.688;37.600;2023-11-19T03:04:39;100289.72;;;-4.12;58.06
70200;BME280;57587;55.688;37.600;2023-11-19T03:07:12;100283.19;;;-4.03;58.39
70200;BME280;57587;55.688;37.600;2023-11-19T03:09:40;100276.00;;;-3.98;58.05
70200;BME280;57587;55.688;37.600;2023-11-19T03:12:08;100279.31;;;-3.95;57.83
70200;BME280;57587;55.688;37.600;2023-11-19T03:14:35;100274.63;;;-3.88;56.99
70200;BME280;57587;55.688;37.600;2023-11-19T03:17:02;100275.88;;;-3.78;57.64
70200;BME280;57587;55.688;37.600;2023-11-19T03:19:30;100275.56;;;-3.72;56.96
70200;BME280;57587;55.688;37.600;2023-11-19T03:21:57;100276.88;;;-3.63;56.52
70200;BME280;57587;55.688;37.600;2023-11-19T03:24:26;100274.25;;;-3.63;56.50
70200;BME280;57587;55.688;37.600;2023-11-19T03:26:53;100272.25;;;-3.58;57.08
70200;BME280;57587;55.688;37.600;2023-11-19T03:29:21;100277.88;;;-3.48;57.30
70200;BME280;57587;55.688;37.600;2023-11-19T03:31:49;100269.88;;;-3.45;56.68
70200;BME280;57587;55.688;37.600;2023-11-19T03:34:17;100270.34;;;-3.37;56.78
70200;BME280;57587;55.688;37.600;2023-11-19T03:36:44;100268.94;;;-3.27;55.98
70200;BME280;57587;55.688;37.600;2023-11-19T03:39:12;100262.75;;;-3.26;56.35
70200;BME280;57587;55.688;37.600;2023-11-19T03:41:39;100261.44;;;-3.17;55.59
70200;BME280;57587;55.688;37.600;2023-11-19T03:44:08;100264.84;;;-3.15;55.74
70200;BME280;57587;55.688;37.600;2023-11-19T03:46:37;100261.06;;;-3.09;55.21
70200;BME280;57587;55.688;37.600;2023-11-19T03:49:04;100258.66;;;-3.14;55.17
70200;BME280;57587;55.688;37.600;2023-11-19T03:51:34;100251.81;;;-3.16;55.40
70200;BME280;57587;55.688;37.600;2023-11-19T03:54:02;100252.34;;;-3.10;55.93
70200;BME280;57587;55.688;37.600;2023-11-19T03:56:29;100251.59;;;-3.12;55.75
70200;BME280;57587;55.688;37.600;2023-11-19T03:58:58;100254.38;;;-3.15;55.55
70200;BME280;57587;55.688;37.600;2023-11-19T04:01:25;100247.84;;;-3.23;55.72
70200;BME280;57587;55.688;37.600;2023-11-19T04:03:52;100239.97;;;-3.23;55.84
70200;BME280;57587;55.688;37.600;2023-11-19T04:06:19;100239.38;;;-3.29;56.48
70200;BME280;57587;55.688;37.600;2023-11-19T04:08:48;100221.22;;;-3.32;56.32
70200;BME280;57587;55.688;37.600;2023-11-19T04:11:15;100237.00;;;-3.33;56.44
70200;BME280;57587;55.688;37.600;2023-11-19T04:13:42;100224.75;;;-3.33;56.38
70200;BME280;57587;55.688;37.600;2023-11-19T04:16:09;100215.06;;;-3.31;56.30
70200;BME280;57587;55.688;37.600;2023-11-19T04:18:36;100218.75;;;-3.35;56.56
70200;BME280;57587;55.688;37.600;2023-11-19T04:21:08;100215.97;;;-3.32;56.88
70200;BME280;57587;55.688;37.600;2023-11-19T04:23:35;100211.50;;;-3.30;56.31
70200;BME280;57587;55.688;37.600;2023-11-19T04:26:03;100214.28;;;-3.33;56.13
70200;BME280;57587;55.688;37.600;2023-11-19T04:28:34;100209.00;;;-3.31;56.08
70200;BME280;57587;55.688;37.600;2023-11-19T04:31:01;100199.94;;;-3.26;56.27
70200;BME280;57587;55.688;37.600;2023-11-19T04:33:28;100208.50;;;-3.22;55.41
70200;BME280;57587;55.688;37.600;2023-11-19T04:35:55;100206.63;;;-3.20;55.08
70200;BME280;57587;55.688;37.600;2023-11-19T04:38:22;100217.28;;;-3.23;54.90
70200;BME280;57587;55.688;37.600;2023-11-19T04:40:50;100222.44;;;-3.21;55.30
70200;BME280;57587;55.688;37.600;2023-11-19T04:43:17;100220.91;;;-3.10;55.16
70200;BME280;57587;55.688;37.600;2023-11-19T04:45:44;100226.16;;;-3.10;55.32
70200;BME280;57587;55.688;37.600;2023-11-19T04:48:11;100225.31;;;-3.10;55.25
70200;BME280;57587;55.688;37.600;2023-11-19T04:50:39;100234.38;;;-3.16;55.65
70200;BME280;57587;55.688;37.600;2023-11-19T04:53:06;100229.34;;;-3.20;55.37
70200;BME280;57587;55.688;37.600;2023-11-19T04:55:33;100222.44;;;-3.21;55.65
70200;BME280;57587;55.688;37.600;2023-11-19T04:58:00;100227.66;;;-3.21;55.43
70200;BME280;57587;55.688;37.600;2023-11-19T05:00:28;100230.31;;;-3.39;55.87
70200;BME280;57587;55.688;37.600;2023-11-19T05:02:55;100226.06;;;-3.41;55.63
70200;BME280;57587;55.688;37.600;2023-11-19T05:05:22;100227.00;;;-3.60;55.82
70200;BME280;57587;55.688;37.600;2023-11-19T05:07:49;100223.25;;;-3.54;55.52
70200;BME280;57587;55.688;37.600;2023-11-19T05:10:16;100221.41;;;-3.69;56.28
70200;BME280;57587;55.688;37.600;2023-11-19T05:12:44;100234.47;;;-3.69;56.36
70200;BME280;57587;55.688;37.600;2023-11-19T05:15:11;100241.78;;;-3.76;56.42
70200;BME280;57587;55.688;37.600;2023-11-19T05:17:40;100237.25;;;-3.73;55.62
70200;BME280;57587;55.688;37.600;2023-11-19T05:20:07;100234.81;;;-3.58;56.20
70200;BME280;57587;55.688;37.600;2023-11-19T05:22:41;100235.53;;;-3.56;55.27
70200;BME280;57587;55.688;37.600;2023-11-19T05:25:09;100240.72;;;-3.55;55.56
70200;BME280;57587;55.688;37.600;2023-11-19T05:27:38;100244.47;;;-3.43;55.84
70200;BME280;57587;55.688;37.600;2023-11-19T05:30:06;100247.16;;;-3.44;55.36
70200;BME280;57587;55.688;37.600;2023-11-19T05:32:34;100250.19;;;-3.52;55.84
70200;BME280;57587;55.688;37.600;2023-11-19T05:35:01;100242.31;;;-3.35;55.50
70200;BME280;57587;55.688;37.600;2023-11-19T05:37:30;100240.91;;;-3.25;54.87
70200;BME280;57587;55.688;37.600;2023-11-19T05:39:57;100244.63;;;-3.13;53.35
70200;BME280;57587;55.688;37.600;2023-11-19T05:42:29;100244.25;;;-3.05;52.99
70200;BME280;57587;55.688;37.600;2023-11-19T05:44:56;100243.47;;;-3.07;52.27
70200;BME280;57587;55.688;37.600;2023-11-19T05:47:24;100241.50;;;-3.19;52.62
70200;BME280;57587;55.688;37.600;2023-11-19T05:49:52;100230.06;;;-3.01;51.83
70200;BME280;57587;55.688;37.600;2023-11-19T05:52:19;100239.66;;;-3.17;53.17
70200;BME280;57587;55.688;37.600;2023-11-19T05:54:49;100243.22;;;-3.18;53.18
70200;BME280;57587;55.688;37.600;2023-11-19T05:57:18;100241.50;;;-3.19;52.54
70200;BME280;57587;55.688;37.600;2023-11-19T05:59:50;100232.78;;;-3.36;52.21
70200;BME280;57587;55.688;37.600;2023-11-19T06:02:18;100227.38;;;-3.50;51.75
70200;BME280;57587;55.688;37.600;2023-11-19T06:04:45;100239.41;;;-3.46;53.96
70200;BME280;57587;55.688;37.600;2023-11-19T06:07:14;100237.53;;;-3.44;54.73
70200;BME280;57587;55.688;37.600;2023-11-19T06:09:42;100235.53;;;-3.39;55.26
70200;BME280;57587;55.688;37.600;2023-11-19T06:12:09;100233.28;;;-3.29;54.50
70200;BME280;57587;55.688;37.600;2023-11-19T06:14:36;100229.94;;;-3.31;55.38
70200;BME280;57587;55.688;37.600;2023-11-19T06:17:03;100231.50;;;-3.29;55.96
70200;BME280;57587;55.688;37.600;2023-11-19T06:19:32;100225.97;;;-3.22;56.32
70200;BME280;57587;55.688;37.600;2023-11-19T06:22:00;100230.00;;;-3.33;56.61
70200;BME280;57587;55.688;37.600;2023-11-19T06:24:27;100232.38;;;-3.28;57.71
70200;BME280;57587;55.688;37.600;2023-11-19T06:26:54;100236.00;;;-3.31;57.53
70200;BME280;57587;55.688;37.600;2023-11-19T06:29:22;100239.22;;;-3.26;55.82
70200;BME280;57587;55.688;37.600;2023-11-19T06:31:49;100231.09;;;-3.37;54.89
70200;BME280;57587;55.688;37.600;2023-11-19T06:34:17;100225.75;;;-3.35;52.79
70200;BME280;57587;55.688;37.600;2023-11-19T06:36:44;100220.03;;;-3.26;52.29
70200;BME280;57587;55.688;37.600;2023-11-19T06:39:11;100226.75;;;-3.20;53.13
70200;BME280;57587;55.688;37.600;2023-11-19T06:41:39;100225.91;;;-3.21;56.28
70200;BME280;57587;55.688;37.600;2023-11-19T06:44:06;100226.56;;;-3.17;56.01
70200;BME280;57587;55.688;37.600;2023-11-19T06:46:33;100223.44;;;-3.24;55.86
70200;BME280;57587;55.688;37.600;2023-11-19T06:49:00;100218.53;;;-3.30;55.86
70200;BME280;57587;55.688;37.600;2023-11-19T06:51:28;100212.88;;;-3.22;56.16
70200;BME280;57587;55.688;37.600;2023-11-19T06:53:56;100211.88;;;-3.20;55.82
70200;BME280;57587;55.688;37.600;2023-11-19T06:56:24;100209.75;;;-3.29;55.72
70200;BME280;57587;55.688;37.600;2023-11-19T06:58:51;100214.28;;;-3.33;56.87
70200;BME280;57587;55.688;37.600;2023-11-19T07:01:19;100233.75;;;-3.38;55.97
70200;BME280;57587;55.688;37.600;2023-11-19T07:03:47;100219.00;;;-3.39;55.85
70200;BME280;57587;55.688;37.600;2023-11-19T07:06:15;100211.38;;;-3.44;56.21
70200;BME280;57587;55.688;37.600;2023-11-19T07:08:42;100221.25;;;-3.49;56.87
70200;BME280;57587;55.688;37.600;2023-11-19T07:11:13;100227.84;;;-3.42;56.65
70200;BME280;57587;55.688;37.600;2023-11-19T07:13:44;100223.41;;;-3.40;56.67
70200;BME280;57587;55.688;37.600;2023-11-19T07:16:14;100222.44;;;-3.21;56.85
70200;BME280;57587;55.688;37.600;2023-11-19T07:18:41;100222.63;;;-3.09;56.70
70200;BME280;57587;55.688;37.600;2023-11-19T07:21:11;100232.09;;;-3.06;56.54
70200;BME280;57587;55.688;37.600;2023-11-19T07:23:38;100226.00;;;-3.07;55.50
70200;BME280;57587;55.688;37.600;2023-11-19T07:26:06;100222.13;;;-3.15;55.15
70200;BME280;57587;55.688;37.600;2023-11-19T07:28:36;100217.41;;;-2.93;55.65
70200;BME280;57587;55.688;37.600;2023-11-19T07:31:04;100223.53;;;-2.61;54.52
70200;BME280;57587;55.688;37.600;2023-11-19T07:33:31;100228.59;;;-2.42;54.78
70200;BME280;57587;55.688;37.600;2023-11-19T07:35:58;100230.13;;;-2.38;53.95
70200;BME280;57587;55.688;37.600;2023-11-19T07:38:25;100220.97;;;-2.30;54.29
70200;BME280;57587;55.688;37.600;2023-11-19T07:40:53;100216.00;;;-2.51;54.41
70200;BME280;57587;55.688;37.600;2023-11-19T07:43:23;100217.09;;;-2.55;55.09
70200;BME280;57587;55.688;37.600;2023-11-19T07:45:52;100216.94;;;-2.52;55.60
70200;BME280;57587;55.688;37.600;2023-11-19T07:48:19;100218.94;;;-2.57;54.72
70200;BME280;57587;55.688;37.600;2023-11-19T07:50:50;100214.66;;;-2.58;55.02
70200;BME280;57587;55.688;37.600;2023-11-19T07:53:20;100221.72;;;-2.76;55.06
70200;BME280;57587;55.688;37.600;2023-11-19T07:55:47;100222.78;;;-2.79;56.43
70200;BME280;57587;55.688;37.600;2023-11-19T07:58:14;100223.94;;;-3.00;55.66
70200;BME280;57587;55.688;37.600;2023-11-19T08:00:42;100223.69;;;-2.80;55.53
70200;BME280;57587;55.688;37.600;2023-11-19T08:03:09;100223.44;;;-2.75;55.28
70200;BME280;57587;55.688;37.600;2023-11-19T08:05:36;100209.41;;;-2.74;54.11
70200;BME280;57587;55.688;37.600;2023-11-19T08:08:04;100215.31;;;-2.55;54.50
70200;BME280;57587;55.688;37.600;2023-11-19T08:10:31;100216.34;;;-2.41;53.11
70200;BME280;57587;55.688;37.600;2023-11-19T08:13:00;100212.19;;;-2.29;53.88
70200;BME280;57587;55.688;37.600;2023-11-19T08:15:27;100213.78;;;-1.81;52.32
70200;BME280;57587;55.688;37.600;2023-11-19T08:17:57;100207.09;;;-1.87;52.67
70200;BME280;57587;55.688;37.600;2023-11-19T08:20:24;100207.50;;;-1.78;52.54
70200;BME280;57587;55.688;37.600;2023-11-19T08:22:52;100203.22;;;-1.79;52.28
70200;BME280;57587;55.688;37.600;2023-11-19T08:25:19;100203.63;;;-2.17;52.46
70200;BME280;57587;55.688;37.600;2023-11-19T08:27:46;100203.50;;;-2.00;53.27
70200;BME280;57587;55.688;37.600;2023-11-19T08:30:13;100204.84;;;-1.93;52.69
70200;BME280;57587;55.688;37.600;2023-11-19T08:32:41;100196.06;;;-1.92;52.31
70200;BME280;57587;55.688;37.600;2023-11-19T08:35:08;100205.47;;;-2.03;52.65
70200;BME280;57587;55.688;37.600;2023-11-19T08:37:35;100195.38;;;-2.57;52.94
70200;BME280;57587;55.688;37.600;2023-11-19T08:40:05;100188.56;;;-2.75;53.12
70200;BME280;57587;55.688;37.600;2023-11-19T08:42:34;100197.47;;;-2.95;53.38
70200;BME280;57587;55.688;37.600;2023-11-19T08:45:01;100198.81;;;-3.04;54.11
70200;BME280;57587;55.688;37.600;2023-11-19T08:47:30;100197.16;;;-3.22;53.82
70200;BME280;57587;55.688;37.600;2023-11-19T08:49:57;100191.00;;;-3.37;56.02
70200;BME280;57587;55.688;37.600;2023-11-19T08:52:30;100198.44;;;-3.30;54.76
70200;BME280;57587;55.688;37.600;2023-11-19T08:55:01;100202.47;;;-3.40;55.38
70200;BME280;57587;55.688;37.600;2023-11-19T08:57:29;100204.63;;;-3.48;56.37
70200;BME280;57587;55.688;37.600;2023-11-19T08:59:56;100199.75;;;-3.38;55.37
70200;BME280;57587;55.688;37.600;2023-11-19T09:02:23;100205.50;;;-3.32;55.28
70200;BME280;57587;55.688;37.600;2023-11-19T09:04:50;100195.13;;;-3.33;54.91
70200;BME280;57587;55.688;37.600;2023-11-19T09:07:20;100197.63;;;-3.14;53.49
70200;BME280;57587;55.688;37.600;2023-11-19T09:09:49;100187.06;;;-3.13;52.88
70200;BME280;57587;55.688;37.600;2023-11-19T09:12:16;100191.38;;;-3.12;52.94
70200;BME280;57587;55.688;37.600;2023-11-19T09:14:43;100177.34;;;-3.11;53.07
70200;BME280;57587;55.688;37.600;2023-11-19T09:17:10;100179.75;;;-3.06;52.28
70200;BME280;57587;55.688;37.600;2023-11-19T09:19:38;100172.97;;;-2.94;51.57
70200;BME280;57587;55.688;37.600;2023-11-19T09:22:05;100177.22;;;-2.92;51.92
70200;BME280;57587;55.688;37.600;2023-11-19T09:24:32;100164.03;;;-2.90;51.24
70200;BME280;57587;55.688;37.600;2023-11-19T09:26:59;100168.78;;;-2.97;50.53
70200;BME280;57587;55.688;37.600;2023-11-19T09:29:27;100166.56;;;-2.89;51.86
70200;BME280;57587;55.688;37.600;2023-11-19T09:31:54;100163.28;;;-2.76;50.83
70200;BME280;57587;55.688;37.600;2023-11-19T09:34:21;100162.59;;;-2.80;50.11
70200;BME280;57587;55.688;37.600;2023-11-19T09:36:48;100155.41;;;-2.76;50.04
70200;BME280;57587;55.688;37.600;2023-11-19T09:39:16;100151.38;;;-2.66;50.71
70200;BME280;57587;55.688;37.600;2023-11-19T09:41:45;100147.22;;;-2.86;49.37
70200;BME280;57587;55.688;37.600;2023-11-19T09:44:12;100142.50;;;-2.80;49.82
70200;BME280;57587;55.688;37.600;2023-11-19T09:46:42;100146.81;;;-2.79;50.29
70200;BME280;57587;55.688;37.600;2023-11-19T09:49:10;100140.03;;;-2.83;50.89
70200;BME280;57587;55.688;37.600;2023-11-19T09:51:38;100134.13;;;-2.86;50.00
70200;BME280;57587;55.688;37.600;2023-11-19T09:54:05;100124.94;;;-2.78;50.81
70200;BME280;57587;55.688;37.600;2023-11-19T09:56:35;100126.25;;;-2.70;49.93
70200;BME280;57587;55.688;37.600;2023-11-19T09:59:05;100126.44;;;-2.73;49.76
70200;BME280;57587;55.688;37.600;2023-11-19T10:01:36;100120.78;;;-2.97;50.40
70200;BME280;57587;55.688;37.600;2023-11-19T10:04:04;100122.47;;;-3.12;49.45
70200;BME280;57587;55.688;37.600;2023-11-19T10:06:33;100107.78;;;-3.15;50.26
70200;BME280;57587;55.688;37.600;2023-11-19T10:09:00;100108.53;;;-3.13;50.44
70200;BME280;57587;55.688;37.600;2023-11-19T10:11:27;100110.13;;;-3.10;49.67
70200;BME280;57587;55.688;37.600;2023-11-19T10:13:55;100106.94;;;-3.15;49.96
70200;BME280;57587;55.688;37.600;2023-11-19T10:16:28;100105.84;;;-3.11;50.21
70200;BME280;57587;55.688;37.600;2023-11-19T10:18:57;100106.28;;;-3.03;49.69
70200;BME280;57587;55.688;37.600;2023-11-19T10:21:24;100113.59;;;-3.10;49.84
70200;BME280;57587;55.688;37.600;2023-11-19T10:23:56;100100.44;;;-3.08;49.71
70200;BME280;57587;55.688;37.600;2023-11-19T10:26:27;100094.88;;;-3.02;49.93
70200;BME280;57587;55.688;37.600;2023-11-19T10:28:55;100100.84;;;-2.84;49.82
70200;BME280;57587;55.688;37.600;2023-11-19T10:31:23;100100.41;;;-2.76;49.85
70200;BME280;57587;55.688;37.600;2023-11-19T10:33:53;100095.59;;;-2.68;48.78
70200;BME280;57587;55.688;37.600;2023-11-19T10:36:21;100103.66;;;-2.57;49.07
70200;BME280;57587;55.688;37.600;2023-11-19T10:38:52;100096.75;;;-2.58;48.81
70200;BME280;57587;55.688;37.600;2023-11-19T10:41:29;100106.00;;;-2.83;49.24
70200;BME280;57587;55.688;37.600;2023-11-19T10:44:01;100113.16;;;-2.70;48.46
70200;BME280;57587;55.688;37.600;2023-11-19T10:46:41;100108.19;;;-2.59;48.74
70200;BME280;57587;55.688;37.600;2023-11-19T10:49:09;100109.50;;;-2.52;48.57
70200;BME280;57587;55.688;37.600;2023-11-19T10:51:44;100101.81;;;-2.55;48.19
70200;BME280;57587;55.688;37.600;2023-11-19T10:54:13;100092.41;;;-2.43;48.13
70200;BME280;57587;55.688;37.600;2023-11-19T10:56:44;100093.53;;;-2.47;47.63
70200;BME280;57587;55.688;37.600;2023-11-19T10:59:13;100107.59;;;-2.64;47.70
70200;BME280;57587;55.688;37.600;2023-11-19T11:01:45;100097.44;;;-2.70;48.51
70200;BME280;57587;55.688;37.600;2023-11-19T11:04:20;100108.06;;;-2.58;47.83
70200;BME280;57587;55.688;37.600;2023-11-19T11:06:51;100101.66;;;-2.52;48.40
70200;BME280;57587;55.688;37.600;2023-11-19T11:09:21;100096.06;;;-2.46;47.61
70200;BME280;57587;55.688;37.600;2023-11-19T11:11:49;100098.50;;;-2.43;47.75
70200;BME280;57587;55.688;37.600;2023-11-19T11:14:18;100093.75;;;-2.66;46.42
70200;BME280;57587;55.688;37.600;2023-11-19T11:16:48;100089.16;;;-2.63;46.48
70200;BME280;57587;55.688;37.600;2023-11-19T11:19:16;100090.00;;;-2.62;46.44
70200;BME280;57587;55.688;37.600;2023-11-19T11:21:55;100084.59;;;-2.59;45.80
70200;BME280;57587;55.688;37.600;2023-11-19T11:36:17;100088.81;;;-2.57;47.48
70200;BME280;57587;55.688;37.600;2023-11-19T11:38:48;100073.91;;;-2.40;48.06
70200;BME280;57587;55.688;37.600;2023-11-19T11:41:24;100083.31;;;-2.22;46.88
70200;BME280;57587;55.688;37.600;2023-11-19T11:43:56;100080.47;;;-2.33;46.80
70200;BME280;57587;55.688;37.600;2023-11-19T11:49:07;100080.34;;;-2.46;47.55
70200;BME280;57587;55.688;37.600;2023-11-19T11:57:12;100091.06;;;-2.96;48.72
70200;BME280;57587;55.688;37.600;2023-11-19T12:02:10;100086.19;;;-3.18;48.92
70200;BME280;57587;55.688;37.600;2023-11-19T12:04:41;100076.38;;;-3.31;49.82
70200;BME280;57587;55.688;37.600;2023-11-19T12:07:27;100081.28;;;-3.25;50.17
70200;BME280;57587;55.688;37.600;2023-11-19T12:10:08;100074.44;;;-3.11;49.34
70200;BME280;57587;55.688;37.600;2023-11-19T12:12:40;100078.56;;;-3.07;49.80
70200;BME280;57587;55.688;37.600;2023-11-19T12:15:09;100077.13;;;-2.97;49.11
70200;BME280;57587;55.688;37.600;2023-11-19T12:17:49;100073.16;;;-3.04;49.16
70200;BME280;57587;55.688;37.600;2023-11-19T12:20:19;100070.31;;;-3.15;49.13
70200;BME280;57587;55.688;37.600;2023-11-19T12:22:50;100083.22;;;-3.12;49.85
70200;BME280;57587;55.688;37.600;2023-11-19T12:25:18;100071.81;;;-3.11;49.35
70200;BME280;57587;55.688;37.600;2023-11-19T12:27:50;100069.63;;;-3.19;49.06
70200;BME280;57587;55.688;37.600;2023-11-19T12:30:22;100064.41;;;-3.19;49.13
70200;BME280;57587;55.688;37.600;2023-11-19T12:32:54;100063.19;;;-3.13;48.89
70200;BME280;57587;55.688;37.600;2023-11-19T12:35:23;100059.81;;;-2.99;48.69
70200;BME280;57587;55.688;37.600;2023-11-19T12:37:51;100063.09;;;-2.96;48.31
70200;BME280;57587;55.688;37.600;2023-11-19T12:40:24;100057.59;;;-2.91;48.70
70200;BME280;57587;55.688;37.600;2023-11-19T12:42:53;100058.22;;;-3.02;48.07
70200;BME280;57587;55.688;37.600;2023-11-19T12:45:21;100045.63;;;-2.95;48.40
70200;BME280;57587;55.688;37.600;2023-11-19T12:48:04;100052.38;;;-3.07;47.83
70200;BME280;57587;55.688;37.600;2023-11-19T12:50:51;100048.75;;;-3.20;48.19
70200;BME280;57587;55.688;37.600;2023-11-19T12:53:22;100044.97;;;-3.31;48.78
70200;BME280;57587;55.688;37.600;2023-11-19T12:55:51;100045.72;;;-3.29;49.28
70200;BME280;57587;55.688;37.600;2023-11-19T12:58:48;100048.09;;;-3.56;49.97
70200;BME280;57587;55.688;37.600;2023-11-19T13:01:17;100031.94;;;-3.64;50.03
70200;BME280;57587;55.688;37.600;2023-11-19T13:03:45;100032.88;;;-3.65;50.84
70200;BME280;57587;55.688;37.600;2023-11-19T13:06:14;100034.63;;;-3.65;50.26
70200;BME280;57587;55.688;37.600;2023-11-19T13:08:45;100029.06;;;-3.59;50.11
70200;BME280;57587;55.688;37.600;2023-11-19T13:11:13;100028.03;;;-3.73;50.58